Time;durP1;ratioP1;P1;durP2;ratioP2;P2;SDS_P1;SDS_P2;PMS_P1;PMS_P2;Temp;Humidity;BMP_temperature;BMP_pressure;BME280_temperature;BME280_humidity;BME280_pressure;Samples;Min_cycle;Max_cycle;Signal;HPM_P1;HPM_P2
2022/09/12 00:01:53;;;;;;;4.10;2.13;;;;;;;;;;6249548;22;20366;-70
2022/09/12 00:04:21;;;;;;;1.50;1.40;;;;;;;;;;6276309;22;20058;-70
2022/09/12 00:06:48;;;;;;;9.77;5.45;;;;;;;;;;6276183;22;20012;-70
2022/09/12 00:09:15;;;;;;;5.00;2.88;;;;;;;;;;6276372;22;20019;-70
2022/09/12 00:11:44;;;;;;;29.30;19.25;;;;;;;;;;6276381;22;20016;-70
2022/09/12 00:14:14;;;;;;;8.90;4.93;;;;;;;;;;6276525;22;20012;-70
2022/09/12 00:16:41;;;;;;;5.65;3.10;;;;;;;;;;6276628;22;20035;-71
2022/09/12 00:19:09;;;;;;;3.65;1.70;;;;;;;;;;6276675;22;20023;-71
2022/09/12 00:21:37;;;;;;;26.25;17.95;;;;;;;;;;6276282;22;20345;-72
2022/09/12 00:24:05;;;;;;;4.97;3.50;;;;;;;;;;6276380;22;20042;-70
2022/09/12 00:26:32;;;;;;;5.25;3.90;;;;;;;;;;6276810;22;20095;-71
2022/09/12 00:29:00;;;;;;;3.42;2.33;;;;;;;;;;6249230;22;20033;-71
2022/09/12 00:31:27;;;;;;;6.18;3.00;;;;;;;;;;6249014;22;20446;-71
2022/09/12 00:33:56;;;;;;;5.40;2.85;;;;;;;;;;6249752;22;20019;-70
2022/09/12 00:36:24;;;;;;;7.13;3.58;;;;;;;;;;6277072;22;20091;-71
2022/09/12 00:38:53;;;;;;;2.45;1.33;;;;;;;;;;6278543;22;20043;-72
2022/09/12 00:41:22;;;;;;;3.50;2.10;;;;;;;;;;6276598;22;20020;-71
2022/09/12 00:43:54;;;;;;;3.10;1.85;;;;;;;;;;6250325;22;20392;-71
2022/09/12 00:46:22;;;;;;;7.53;2.05;;;;;;;;;;6276220;22;20090;-70
2022/09/12 00:48:51;;;;;;;4.32;2.30;;;;;;;;;;6276177;22;20035;-72
2022/09/12 00:51:19;;;;;;;3.35;1.73;;;;;;;;;;6276139;22;20020;-70
2022/09/12 00:53:48;;;;;;;5.20;3.50;;;;;;;;;;6275891;22;20020;-70
2022/09/12 00:56:17;;;;;;;4.50;2.53;;;;;;;;;;6275951;22;20011;-69
2022/09/12 00:58:53;;;;;;;6.00;4.22;;;;;;;;;;6275955;22;20023;-69
2022/09/12 01:01:21;;;;;;;2.40;1.88;;;;;;;;;;6276286;22;20033;-70
2022/09/12 01:03:48;;;;;;;3.45;2.20;;;;;;;;;;6249123;22;20026;-70
2022/09/12 01:06:19;;;;;;;6.65;2.33;;;;;;;;;;6275754;22;20342;-70
2022/09/12 01:08:47;;;;;;;4.05;2.40;;;;;;;;;;6275687;22;20020;-70
2022/09/12 01:11:15;;;;;;;4.20;1.90;;;;;;;;;;6275800;22;20066;-70
2022/09/12 01:13:43;;;;;;;4.80;2.78;;;;;;;;;;6275865;22;20019;-70
2022/09/12 01:16:11;;;;;;;2.28;1.42;;;;;;;;;;6275636;22;20012;-70
2022/09/12 01:18:41;;;;;;;4.15;1.98;;;;;;;;;;6276026;22;20026;-69
2022/09/12 01:21:24;;;;;;;5.53;2.45;;;;;;;;;;6248652;22;20377;-69
2022/09/12 01:24:00;;;;;;;2.97;2.08;;;;;;;;;;6275789;22;20016;-69
2022/09/12 01:26:46;;;;;;;2.50;1.75;;;;;;;;;;6275552;22;20020;-70
2022/09/12 01:29:25;;;;;;;3.42;1.90;;;;;;;;;;6275932;22;20016;-69
2022/09/12 01:32:06;;;;;;;3.83;1.88;;;;;;;;;;6275720;22;20011;-70
2022/09/12 01:34:45;;;;;;;3.65;1.70;;;;;;;;;;6276064;22;20038;-70
2022/09/12 01:37:21;;;;;;;3.80;1.90;;;;;;;;;;6275479;22;20023;-69
2022/09/12 01:39:52;;;;;;;2.08;1.67;;;;;;;;;;6275861;22;20047;-70
2022/09/12 01:42:24;;;;;;;4.63;2.42;;;;;;;;;;6275794;22;20054;-70
2022/09/12 01:45:10;;;;;;;1.55;1.23;;;;;;;;;;6275797;22;20015;-70
2022/09/12 01:47:43;;;;;;;3.92;2.17;;;;;;;;;;6275784;22;20434;-70
2022/09/12 01:50:14;;;;;;;2.42;1.52;;;;;;;;;;6275684;22;20454;-69
2022/09/12 01:52:42;;;;;;;4.72;1.80;;;;;;;;;;6275550;22;20019;-69
2022/09/12 01:55:13;;;;;;;3.92;2.00;;;;;;;;;;6275976;22;20019;-69
2022/09/12 01:57:44;;;;;;;2.95;1.70;;;;;;;;;;6248520;22;20401;-71
2022/09/12 02:00:12;;;;;;;2.22;1.65;;;;;;;;;;6275505;22;20023;-70
2022/09/12 02:02:47;;;;;;;2.00;1.65;;;;;;;;;;6275597;22;20095;-69
2022/09/12 02:05:19;;;;;;;2.60;1.75;;;;;;;;;;6248310;22;20022;-69
2022/09/12 02:07:49;;;;;;;3.03;1.65;;;;;;;;;;6248294;22;20024;-69
2022/09/12 02:10:29;;;;;;;4.68;2.20;;;;;;;;;;6275641;22;20112;-69
2022/09/12 02:13:06;;;;;;;2.55;1.70;;;;;;;;;;6275275;22;20437;-69
2022/09/12 02:15:37;;;;;;;2.10;1.67;;;;;;;;;;6277322;22;20008;-70
2022/09/12 02:18:05;;;;;;;3.17;1.40;;;;;;;;;;6277471;22;20024;-70
2022/09/12 02:20:34;;;;;;;4.47;1.63;;;;;;;;;;6277302;22;20054;-70
2022/09/12 02:23:20;;;;;;;1.83;1.33;;;;;;;;;;6250419;22;20105;-70
2022/09/12 02:25:50;;;;;;;3.15;1.40;;;;;;;;;;6277444;22;20341;-70
2022/09/12 02:28:23;;;;;;;2.78;1.70;;;;;;;;;;6277435;22;20338;-69
2022/09/12 02:31:11;;;;;;;4.15;1.80;;;;;;;;;;6277271;22;20460;-69
2022/09/12 02:33:44;;;;;;;4.10;2.08;;;;;;;;;;6252364;22;20024;-70
2022/09/12 02:36:13;;;;;;;3.33;1.58;;;;;;;;;;6277232;22;20027;-69
2022/09/12 02:38:40;;;;;;;6.60;3.88;;;;;;;;;;6277358;22;20011;-69
2022/09/12 02:41:08;;;;;;;5.55;1.90;;;;;;;;;;6277485;22;20015;-69
2022/09/12 02:43:37;;;;;;;3.63;2.08;;;;;;;;;;6277295;22;20030;-69
2022/09/12 02:46:06;;;;;;;3.63;1.77;;;;;;;;;;6277201;22;20016;-70
2022/09/12 02:48:37;;;;;;;3.33;1.55;;;;;;;;;;6277247;22;20020;-70
2022/09/12 02:51:07;;;;;;;5.28;3.00;;;;;;;;;;6277201;22;20015;-70
2022/09/12 02:53:35;;;;;;;3.22;1.58;;;;;;;;;;6277098;22;20068;-69
2022/09/12 02:56:05;;;;;;;3.90;2.45;;;;;;;;;;6277536;22;20085;-70
2022/09/12 02:58:33;;;;;;;3.25;2.25;;;;;;;;;;6277430;22;20026;-69
2022/09/12 03:01:16;;;;;;;6.07;1.98;;;;;;;;;;6276881;22;20016;-69
2022/09/12 03:04:10;;;;;;;3.63;2.40;;;;;;;;;;6277455;22;20026;-69
2022/09/12 03:06:40;;;;;;;4.00;2.72;;;;;;;;;;6193904;22;20020;-69
2022/09/12 03:09:14;;;;;;;6.03;4.30;;;;;;;;;;6276928;22;20102;-70
2022/09/12 03:12:11;;;;;;;5.40;2.65;;;;;;;;;;6276891;22;20028;-70
2022/09/12 03:15:02;;;;;;;3.25;2.20;;;;;;;;;;6219840;22;20019;-69
2022/09/12 03:17:38;;;;;;;3.42;1.95;;;;;;;;;;6207983;22;20023;-69
2022/09/12 03:20:17;;;;;;;4.47;3.22;;;;;;;;;;6276915;22;20016;-70
2022/09/12 03:22:48;;;;;;;2.92;1.50;;;;;;;;;;6276882;22;20026;-70
2022/09/12 03:25:21;;;;;;;3.53;1.80;;;;;;;;;;6276758;22;20069;-69
2022/09/12 03:28:06;;;;;;;9.05;2.88;;;;;;;;;;6276853;22;20061;-71
2022/09/12 03:30:40;;;;;;;4.05;2.30;;;;;;;;;;6276717;22;20023;-69
2022/09/12 03:33:15;;;;;;;7.85;5.10;;;;;;;;;;6276793;22;20015;-69
2022/09/12 03:35:43;;;;;;;;;;;;;;;;;;6277018;22;20099;-71
2022/09/12 03:38:10;;;;;;;6.55;1.77;;;;;;;;;;6276640;22;19915;-71
2022/09/12 03:40:39;;;;;;;3.42;1.95;;;;;;;;;;6225364;22;20074;-70
2022/09/12 03:43:07;;;;;;;7.15;1.98;;;;;;;;;;6276607;22;20035;-70
2022/09/12 03:45:35;;;;;;;4.35;2.22;;;;;;;;;;6276702;22;20024;-68
2022/09/12 03:48:04;;;;;;;4.47;2.30;;;;;;;;;;6276503;22;20091;-69
2022/09/12 03:50:32;;;;;;;4.40;2.10;;;;;;;;;;6276189;22;20020;-69
2022/09/12 03:53:00;;;;;;;5.38;3.60;;;;;;;;;;6276769;22;20016;-69
2022/09/12 03:55:27;;;;;;;3.88;2.33;;;;;;;;;;6276196;22;20016;-69
2022/09/12 03:57:55;;;;;;;5.68;2.58;;;;;;;;;;6276438;22;20082;-69
2022/09/12 04:00:23;;;;;;;2.70;2.10;;;;;;;;;;6276158;22;20065;-70
2022/09/12 04:02:53;;;;;;;4.78;2.08;;;;;;;;;;6249675;22;20019;-71
2022/09/12 04:05:21;;;;;;;5.20;3.38;;;;;;;;;;6276512;22;20087;-70
2022/09/12 04:07:48;;;;;;;8.05;2.90;;;;;;;;;;6276340;22;20069;-70
2022/09/12 04:10:16;;;;;;;5.65;3.67;;;;;;;;;;6276365;22;20416;-70
2022/09/12 04:12:44;;;;;;;9.00;3.17;;;;;;;;;;6276155;22;20074;-71
2022/09/12 04:15:11;;;;;;;4.60;2.70;;;;;;;;;;6276380;22;20083;-69
2022/09/12 04:17:38;;;;;;;9.52;3.00;;;;;;;;;;6276576;22;20016;-69
2022/09/12 04:20:06;;;;;;;5.50;2.58;;;;;;;;;;6276475;22;20012;-71
2022/09/12 04:22:34;;;;;;;6.97;2.33;;;;;;;;;;6276327;22;20022;-69
2022/09/12 04:25:01;;;;;;;4.10;2.53;;;;;;;;;;6249391;22;20015;-68
2022/09/12 04:27:29;;;;;;;7.97;3.15;;;;;;;;;;6275181;22;20022;-69
2022/09/12 04:29:58;;;;;;;4.28;2.38;;;;;;;;;;6276166;22;20026;-69
2022/09/12 04:32:25;;;;;;;4.50;2.10;;;;;;;;;;6276017;22;20019;-69
2022/09/12 04:34:53;;;;;;;4.43;2.22;;;;;;;;;;6249080;22;20015;-69
2022/09/12 04:37:22;;;;;;;3.53;2.80;;;;;;;;;;6248731;22;20506;-69
2022/09/12 04:39:50;;;;;;;5.85;3.88;;;;;;;;;;6276339;22;20022;-69
2022/09/12 04:42:18;;;;;;;8.23;4.25;;;;;;;;;;6275724;22;20330;-69
2022/09/12 04:44:45;;;;;;;6.93;3.38;;;;;;;;;;6275119;22;20337;-69
2022/09/12 04:47:13;;;;;;;7.78;3.53;;;;;;;;;;6249478;22;20016;-69
2022/09/12 04:49:40;;;;;;;6.22;2.90;;;;;;;;;;6276118;22;20011;-69
2022/09/12 04:52:08;;;;;;;5.15;3.15;;;;;;;;;;6276137;22;20020;-68
2022/09/12 04:54:35;;;;;;;7.35;4.72;;;;;;;;;;6275916;22;20022;-68
2022/09/12 04:57:03;;;;;;;26.27;18.58;;;;;;;;;;6275928;22;20012;-68
2022/09/12 04:59:30;;;;;;;7.38;4.47;;;;;;;;;;6276106;22;20016;-70
2022/09/12 05:01:58;;;;;;;4.93;3.10;;;;;;;;;;6276122;22;20011;-67
2022/09/12 05:04:25;;;;;;;8.98;4.85;;;;;;;;;;6275865;22;20065;-68
2022/09/12 05:06:53;;;;;;;19.80;9.50;;;;;;;;;;6275875;22;20515;-68
2022/09/12 05:09:21;;;;;;;9.02;5.43;;;;;;;;;;6275988;22;20621;-68
2022/09/12 05:11:48;;;;;;;11.70;4.78;;;;;;;;;;6276027;22;20022;-69
2022/09/12 05:14:32;;;;;;;12.85;5.80;;;;;;;;;;6275728;22;20016;-70
2022/09/12 05:17:00;;;;;;;4.63;2.78;;;;;;;;;;6275862;22;20018;-68
2022/09/12 05:19:29;;;;;;;5.05;3.17;;;;;;;;;;6275468;22;20385;-68
2022/09/12 05:21:56;;;;;;;6.60;4.10;;;;;;;;;;6275421;22;20345;-68
2022/09/12 05:24:24;;;;;;;5.85;3.25;;;;;;;;;;6276881;22;20012;-69
2022/09/12 05:26:52;;;;;;;5.20;2.95;;;;;;;;;;6275904;22;20338;-68
2022/09/12 05:29:19;;;;;;;10.68;3.63;;;;;;;;;;6248620;22;20015;-68
2022/09/12 05:31:50;;;;;;;5.68;3.40;;;;;;;;;;6275860;22;20016;-68
2022/09/12 05:34:18;;;;;;;5.80;2.95;;;;;;;;;;6275506;22;20019;-67
2022/09/12 05:36:46;;;;;;;4.88;3.22;;;;;;;;;;6275611;22;20066;-68
2022/09/12 05:39:13;;;;;;;6.43;2.70;;;;;;;;;;6275605;22;20015;-68
2022/09/12 05:41:41;;;;;;;5.63;2.75;;;;;;;;;;6275323;22;20035;-68
2022/09/12 05:44:11;;;;;;;3.88;2.30;;;;;;;;;;6248742;22;20384;-68
2022/09/12 05:46:39;;;;;;;5.38;2.78;;;;;;;;;;6275727;22;20019;-68
2022/09/12 05:49:08;;;;;;;4.57;2.50;;;;;;;;;;6276272;22;20043;-68
2022/09/12 05:51:37;;;;;;;8.13;3.10;;;;;;;;;;6277975;22;20087;-68
2022/09/12 05:54:06;;;;;;;7.03;2.83;;;;;;;;;;6277636;22;20030;-67
2022/09/12 05:56:37;;;;;;;5.53;3.00;;;;;;;;;;6250866;22;20381;-69
2022/09/12 05:59:06;;;;;;;3.97;2.30;;;;;;;;;;6277666;22;20047;-68
2022/09/12 06:01:34;;;;;;;3.55;2.35;;;;;;;;;;6250526;22;20062;-68
2022/09/12 06:04:04;;;;;;;9.48;2.50;;;;;;;;;;6250497;22;20091;-69
2022/09/12 06:06:32;;;;;;;5.50;3.10;;;;;;;;;;6277799;22;20388;-69
2022/09/12 06:22:42;;;;;;;4.82;2.50;;;;;;;;;;6227206;22;20432;-69
2022/09/12 06:25:09;;;;;;;6.95;2.08;;;;;;;;;;6224307;23;20021;-69
2022/09/12 06:27:36;;;;;;;3.67;2.60;;;;;;;;;;6224074;23;20039;-68
2022/09/12 06:30:04;;;;;;;4.43;2.22;;;;;;;;;;6224184;23;20020;-68
2022/09/12 06:32:33;;;;;;;3.65;2.17;;;;;;;;;;6224312;23;20043;-68
2022/09/12 06:35:00;;;;;;;5.18;2.85;;;;;;;;;;6224124;23;20012;-69
2022/09/12 06:37:28;;;;;;;3.50;1.63;;;;;;;;;;6224570;23;20066;-69
2022/09/12 06:39:56;;;;;;;4.57;2.40;;;;;;;;;;6223988;23;20087;-69
2022/09/12 06:42:23;;;;;;;6.07;3.30;;;;;;;;;;6223924;23;20092;-70
2022/09/12 06:44:56;;;;;;;10.55;6.80;;;;;;;;;;6223658;23;20106;-69
2022/09/12 06:47:23;;;;;;;4.72;2.80;;;;;;;;;;6223656;23;20342;-69
2022/09/12 06:49:51;;;;;;;7.53;2.83;;;;;;;;;;6223724;23;20012;-69
2022/09/12 06:52:18;;;;;;;2.67;2.00;;;;;;;;;;6223892;23;20021;-68
2022/09/12 06:54:46;;;;;;;3.10;1.80;;;;;;;;;;6223606;23;20020;-69
2022/09/12 06:57:13;;;;;;;3.80;2.00;;;;;;;;;;6223727;23;20023;-68
2022/09/12 06:59:41;;;;;;;3.50;1.65;;;;;;;;;;6224003;23;20119;-69
2022/09/12 07:02:08;;;;;;;6.22;2.10;;;;;;;;;;6223430;23;20012;-68
2022/09/12 07:04:36;;;;;;;2.08;1.80;;;;;;;;;;6196820;23;20100;-68
2022/09/12 07:07:04;;;;;;;4.47;2.50;;;;;;;;;;6223398;23;20079;-69
2022/09/12 07:09:32;;;;;;;4.18;2.05;;;;;;;;;;6223533;23;20026;-69
2022/09/12 07:12:03;;;;;;;3.28;1.80;;;;;;;;;;6223517;23;20017;-69
2022/09/12 07:14:30;;;;;;;3.17;1.90;;;;;;;;;;6223647;23;20017;-69
2022/09/12 07:16:57;;;;;;;2.90;1.85;;;;;;;;;;6223538;23;20044;-70
2022/09/12 07:19:25;;;;;;;5.25;2.30;;;;;;;;;;6223475;23;20062;-69
2022/09/12 07:21:53;;;;;;;4.55;2.50;;;;;;;;;;6221461;23;20020;-70
2022/09/12 07:24:24;;;;;;;3.35;2.00;;;;;;;;;;6217118;23;20021;-70
2022/09/12 07:26:52;;;;;;;5.20;1.70;;;;;;;;;;6216588;23;20022;-70
2022/09/12 07:29:19;;;;;;;3.33;2.20;;;;;;;;;;6216445;23;20504;-69
2022/09/12 07:32:05;;;;;;;2.25;1.70;;;;;;;;;;6216391;23;20020;-69
2022/09/12 07:34:32;;;;;;;3.50;1.50;;;;;;;;;;6216636;23;20043;-69
2022/09/12 07:37:00;;;;;;;4.55;1.70;;;;;;;;;;6216654;23;20017;-70
2022/09/12 07:39:27;;;;;;;6.22;1.88;;;;;;;;;;6216899;23;20311;-69
2022/09/12 07:41:56;;;;;;;3.05;1.75;;;;;;;;;;6216398;23;20016;-70
2022/09/12 07:44:25;;;;;;;4.88;1.88;;;;;;;;;;6216410;23;20059;-69
2022/09/12 07:46:53;;;;;;;8.80;2.25;;;;;;;;;;6216455;23;20020;-69
2022/09/12 07:49:20;;;;;;;6.38;2.17;;;;;;;;;;6216406;23;20012;-68
2022/09/12 07:51:48;;;;;;;4.80;2.00;;;;;;;;;;6216389;23;20028;-69
2022/09/12 07:54:16;;;;;;;6.07;3.28;;;;;;;;;;6216242;23;20409;-69
2022/09/12 07:56:44;;;;;;;9.57;5.43;;;;;;;;;;6216504;23;20016;-69
2022/09/12 07:59:12;;;;;;;8.57;5.80;;;;;;;;;;6216191;23;20013;-69
2022/09/12 08:01:40;;;;;;;8.15;4.00;;;;;;;;;;6216188;23;20447;-69
2022/09/12 08:04:08;;;;;;;6.35;2.20;;;;;;;;;;6216189;23;20063;-69
2022/09/12 08:06:35;;;;;;;8.13;2.78;;;;;;;;;;6216029;23;20017;-69
2022/09/12 08:09:03;;;;;;;79.25;5.78;;;;;;;;;;6216070;23;20013;-69
2022/09/12 08:11:31;;;;;;;3.58;2.33;;;;;;;;;;6216051;23;20043;-69
2022/09/12 08:14:00;;;;;;;2.55;1.60;;;;;;;;;;6216146;23;20048;-69
2022/09/12 08:16:29;;;;;;;5.53;1.80;;;;;;;;;;6216413;23;20020;-69
2022/09/12 08:18:58;;;;;;;4.15;2.08;;;;;;;;;;6216349;23;20012;-69
2022/09/12 08:21:29;;;;;;;5.00;1.85;;;;;;;;;;6216094;23;20017;-69
2022/09/12 08:23:59;;;;;;;5.18;1.60;;;;;;;;;;6216246;23;20017;-69
2022/09/12 08:26:27;;;;;;;12.48;1.70;;;;;;;;;;6216172;23;20083;-69
2022/09/12 08:28:54;;;;;;;7.55;2.38;;;;;;;;;;6216223;23;20453;-69
2022/09/12 08:31:23;;;;;;;4.90;2.75;;;;;;;;;;6215877;23;20021;-69
2022/09/12 08:33:50;;;;;;;2.45;2.10;;;;;;;;;;6215498;23;20083;-69
2022/09/12 08:36:23;;;;;;;6.88;1.20;;;;;;;;;;6215897;23;20027;-69
2022/09/12 08:38:51;;;;;;;2.67;1.67;;;;;;;;;;6189735;23;20342;-69
2022/09/12 08:41:29;;;;;;;5.07;3.38;;;;;;;;;;6215807;23;20028;-69
2022/09/12 08:44:11;;;;;;;5.18;1.98;;;;;;;;;;6215892;23;20021;-69
2022/09/12 08:46:51;;;;;;;3.97;2.13;;;;;;;;;;6215919;23;20024;-70
2022/09/12 08:49:35;;;;;;;3.92;1.67;;;;;;;;;;6215741;23;20439;-68
2022/09/12 08:52:12;;;;;;;4.13;1.55;;;;;;;;;;6215474;23;20021;-69
2022/09/12 08:54:39;;;;;;;5.20;3.45;;;;;;;;;;6189584;23;20040;-69
2022/09/12 08:57:08;;;;;;;4.53;3.53;;;;;;;;;;6215737;23;20051;-69
2022/09/12 08:59:40;;;;;;;3.38;2.22;;;;;;;;;;6216160;23;20379;-69
2022/09/12 09:02:21;;;;;;;3.00;2.00;;;;;;;;;;6215786;23;20017;-69
2022/09/12 09:04:49;;;;;;;5.10;2.17;;;;;;;;;;6189482;23;20075;-69
2022/09/12 09:07:28;;;;;;;5.75;1.98;;;;;;;;;;6188791;23;20518;-69
2022/09/12 09:09:59;;;;;;;3.50;1.50;;;;;;;;;;6189052;23;20320;-69
2022/09/12 09:12:46;;;;;;;6.70;3.97;;;;;;;;;;6215696;23;20078;-69
2022/09/12 09:15:29;;;;;;;5.13;3.30;;;;;;;;;;6215448;23;20020;-69
2022/09/12 09:18:03;;;;;;;3.88;2.05;;;;;;;;;;6215520;23;20019;-69
2022/09/12 09:20:35;;;;;;;6.63;2.10;;;;;;;;;;6189023;23;20513;-69
2022/09/12 09:23:06;;;;;;;3.40;2.03;;;;;;;;;;6215481;23;20019;-69
2022/09/12 09:25:46;;;;;;;8.82;3.65;;;;;;;;;;6189293;23;20461;-69
2022/09/12 09:28:19;;;;;;;4.45;2.20;;;;;;;;;;6215544;23;20016;-69
2022/09/12 09:30:46;;;;;;;11.48;3.88;;;;;;;;;;6188966;23;20025;-70
2022/09/12 09:33:21;;;;;;;7.35;5.00;;;;;;;;;;6215474;23;20044;-69
2022/09/12 09:36:05;;;;;;;7.75;4.03;;;;;;;;;;6215458;23;20012;-70
2022/09/12 09:38:47;;;;;;;4.57;2.75;;;;;;;;;;6215576;23;20020;-70
2022/09/12 09:41:32;;;;;;;5.68;3.75;;;;;;;;;;6215438;23;20350;-69
2022/09/12 09:44:01;;;;;;;3.53;2.45;;;;;;;;;;6188770;23;20439;-69
2022/09/12 09:46:29;;;;;;;3.30;2.85;;;;;;;;;;6215799;23;20083;-69
2022/09/12 09:48:58;;;;;;;5.82;4.28;;;;;;;;;;6215431;23;20439;-69
2022/09/12 09:51:31;;;;;;;8.15;5.22;;;;;;;;;;6215435;23;20099;-70
2022/09/12 09:54:02;;;;;;;5.80;3.60;;;;;;;;;;6215325;23;20329;-69
2022/09/12 09:56:33;;;;;;;7.82;3.20;;;;;;;;;;6215513;23;20346;-70
2022/09/12 09:59:16;;;;;;;17.13;2.72;;;;;;;;;;6215603;23;20013;-70
2022/09/12 10:02:02;;;;;;;5.72;2.80;;;;;;;;;;6215315;23;20557;-68
2022/09/12 10:04:31;;;;;;;7.85;3.05;;;;;;;;;;6216080;23;20016;-69
2022/09/12 10:06:59;;;;;;;5.50;2.80;;;;;;;;;;6215331;23;20013;-69
2022/09/12 10:09:28;;;;;;;10.63;2.83;;;;;;;;;;6215438;23;20051;-69
2022/09/12 10:11:56;;;;;;;4.43;2.10;;;;;;;;;;6215253;23;20099;-69
2022/09/12 10:14:23;;;;;;;2.83;1.73;;;;;;;;;;6215320;23;20017;-69
2022/09/12 10:16:52;;;;;;;3.67;1.50;;;;;;;;;;6188813;23;20331;-69
2022/09/12 10:19:36;;;;;;;6.18;3.60;;;;;;;;;;6188726;23;20017;-69
2022/09/12 10:22:05;;;;;;;10.35;3.78;;;;;;;;;;6215235;23;20025;-69
2022/09/12 10:24:37;;;;;;;6.43;4.22;;;;;;;;;;6188556;23;20075;-69
2022/09/12 10:27:07;;;;;;;10.15;7.68;;;;;;;;;;6188998;23;20092;-69
2022/09/12 10:29:44;;;;;;;6.63;3.65;;;;;;;;;;6188700;23;20017;-69
2022/09/12 10:32:12;;;;;;;5.55;3.17;;;;;;;;;;6215108;23;20021;-69
2022/09/12 10:34:44;;;;;;;5.00;2.78;;;;;;;;;;6215084;23;20013;-69
2022/09/12 10:37:20;;;;;;;12.23;8.48;;;;;;;;;;6188467;23;20024;-69
2022/09/12 10:39:52;;;;;;;8.63;3.45;;;;;;;;;;6215108;23;20017;-69
2022/09/12 10:42:38;;;;;;;5.07;3.58;;;;;;;;;;6215031;23;20028;-69
2022/09/12 10:45:17;;;;;;;5.10;3.38;;;;;;;;;;6214992;23;20422;-69
2022/09/12 10:47:45;;;;;;;5.60;3.33;;;;;;;;;;6215173;23;20435;-69
2022/09/12 10:50:41;;;;;;;4.60;2.50;;;;;;;;;;6215814;23;20370;-69
2022/09/12 10:53:28;;;;;;;4.97;3.15;;;;;;;;;;6190820;23;20454;-69
2022/09/12 10:56:12;;;;;;;3.65;1.38;;;;;;;;;;6214949;23;20021;-69
2022/09/12 10:58:59;;;;;;;2.90;2.50;;;;;;;;;;6216528;23;20023;-69
2022/09/12 11:01:35;;;;;;;13.15;7.38;;;;;;;;;;6216985;23;20013;-68
2022/09/12 11:04:03;;;;;;;8.80;6.75;;;;;;;;;;6216998;23;20020;-69
2022/09/12 11:06:46;;;;;;;2.72;2.17;;;;;;;;;;6216789;23;20020;-69
2022/09/12 11:09:32;;;;;;;2.65;1.90;;;;;;;;;;6216966;23;20451;-69
2022/09/12 11:12:17;;;;;;;2.03;1.15;;;;;;;;;;6216584;23;20446;-69
2022/09/12 11:14:48;;;;;;;3.72;1.98;;;;;;;;;;6216825;23;20020;-68
2022/09/12 11:17:22;;;;;;;2.22;1.60;;;;;;;;;;6216840;23;20465;-69
2022/09/12 11:20:08;;;;;;;2.00;1.30;;;;;;;;;;6216925;23;20016;-69
2022/09/12 11:22:38;;;;;;;3.08;1.90;;;;;;;;;;6216629;23;20016;-68
2022/09/12 11:25:15;;;;;;;0.80;0.70;;;;;;;;;;6190444;23;20019;-69
2022/09/12 11:28:06;;;;;;;3.53;2.30;;;;;;;;;;6216638;23;20066;-69
2022/09/12 11:30:38;;;;;;;2.72;0.85;;;;;;;;;;6202187;23;20044;-69
2022/09/12 11:33:09;;;;;;;3.30;1.42;;;;;;;;;;6216542;23;20024;-68
2022/09/12 11:35:43;;;;;;;3.00;2.10;;;;;;;;;;6216502;23;20023;-69
2022/09/12 11:38:18;;;;;;;2.63;1.30;;;;;;;;;;6216631;23;20461;-69
2022/09/12 11:40:46;;;;;;;2.33;0.70;;;;;;;;;;6216546;23;20316;-69
2022/09/12 11:43:19;;;;;;;5.00;2.50;;;;;;;;;;6216950;23;20352;-69
2022/09/12 11:45:47;;;;;;;3.20;1.77;;;;;;;;;;6216466;23;20024;-69
2022/09/12 11:48:25;;;;;;;3.83;2.47;;;;;;;;;;6216832;23;20043;-69
2022/09/12 11:50:52;;;;;;;3.90;2.72;;;;;;;;;;6216612;23;20084;-69
2022/09/12 11:53:25;;;;;;;3.63;1.73;;;;;;;;;;6216338;23;20021;-69
2022/09/12 11:55:56;;;;;;;3.65;2.10;;;;;;;;;;6216499;23;20021;-68
2022/09/12 11:58:25;;;;;;;5.47;2.70;;;;;;;;;;6216526;23;20016;-69
2022/09/12 12:00:55;;;;;;;5.35;3.13;;;;;;;;;;6216575;23;20044;-69
2022/09/12 12:03:39;;;;;;;8.48;6.85;;;;;;;;;;6189773;23;20028;-69
2022/09/12 12:06:21;;;;;;;4.50;3.00;;;;;;;;;;6216420;23;20514;-69
2022/09/12 12:08:49;;;;;;;6.03;3.08;;;;;;;;;;6216140;23;20505;-69
2022/09/12 12:11:34;;;;;;;4.05;3.08;;;;;;;;;;6216366;23;20044;-69
2022/09/12 12:14:12;;;;;;;5.70;3.55;;;;;;;;;;6216345;23;20016;-69
2022/09/12 12:16:40;;;;;;;4.65;3.10;;;;;;;;;;6216378;23;20019;-69
2022/09/12 12:19:28;;;;;;;4.68;2.60;;;;;;;;;;6216181;23;20311;-69
2022/09/12 12:22:05;;;;;;;6.10;3.67;;;;;;;;;;6215861;23;20501;-69
2022/09/12 12:24:33;;;;;;;4.45;2.67;;;;;;;;;;6216101;23;20019;-69
2022/09/12 12:27:00;;;;;;;5.55;2.90;;;;;;;;;;6189768;23;20067;-70
2022/09/12 12:29:33;;;;;;;8.10;5.85;;;;;;;;;;6215952;23;20061;-70
2022/09/12 12:32:01;;;;;;;5.13;3.88;;;;;;;;;;6215862;23;20043;-69
2022/09/12 12:34:30;;;;;;;11.45;3.70;;;;;;;;;;6216100;23;20043;-69
2022/09/12 12:36:58;;;;;;;3.30;1.70;;;;;;;;;;6216110;23;20017;-70
2022/09/12 12:39:31;;;;;;;6.40;2.60;;;;;;;;;;6216126;23;20016;-70
2022/09/12 12:41:59;;;;;;;8.70;2.90;;;;;;;;;;6215974;23;20017;-68
2022/09/12 12:44:47;;;;;;;3.50;2.63;;;;;;;;;;6216013;23;20423;-68
2022/09/12 12:47:15;;;;;;;5.38;1.33;;;;;;;;;;6215864;23;20023;-68
2022/09/12 12:49:50;;;;;;;4.47;3.20;;;;;;;;;;6215804;23;20100;-70
2022/09/12 12:52:18;;;;;;;2.47;1.65;;;;;;;;;;6215332;23;20025;-70
2022/09/12 12:54:46;;;;;;;6.60;2.30;;;;;;;;;;6215333;23;20105;-70
2022/09/12 12:57:36;;;;;;;6.80;2.95;;;;;;;;;;6215046;23;20316;-69
2022/09/12 13:00:04;;;;;;;6.85;3.00;;;;;;;;;;6200347;23;20028;-69
2022/09/12 13:02:35;;;;;;;9.43;4.05;;;;;;;;;;6215580;23;20020;-69
2022/09/12 13:05:05;;;;;;;2.97;1.40;;;;;;;;;;6215370;23;20039;-68
2022/09/12 13:07:36;;;;;;;3.45;1.92;;;;;;;;;;6214791;23;20021;-69
2022/09/12 13:10:05;;;;;;;6.20;2.58;;;;;;;;;;6214972;23;20084;-70
2022/09/12 13:12:42;;;;;;;2.80;1.77;;;;;;;;;;6214810;23;20036;-69
2022/09/12 13:15:28;;;;;;;6.22;2.90;;;;;;;;;;6215133;23;20112;-68
2022/09/12 13:18:00;;;;;;;5.07;2.20;;;;;;;;;;6215128;23;20020;-69
2022/09/12 13:20:30;;;;;;;5.18;2.88;;;;;;;;;;6187968;23;20021;-69
2022/09/12 13:22:58;;;;;;;2.75;2.20;;;;;;;;;;6215217;23;20047;-69
2022/09/12 13:25:25;;;;;;;2.90;2.03;;;;;;;;;;6215177;23;20446;-69
2022/09/12 13:27:58;;;;;;;7.72;3.60;;;;;;;;;;6214916;23;20071;-68
2022/09/12 13:30:27;;;;;;;4.18;2.05;;;;;;;;;;6214440;23;20017;-68
2022/09/12 13:32:57;;;;;;;29.38;2.85;;;;;;;;;;6215144;23;20016;-68
2022/09/12 13:35:33;;;;;;;3.28;2.13;;;;;;;;;;6215089;23;20024;-69
2022/09/12 13:38:19;;;;;;;4.53;2.47;;;;;;;;;;6215347;23;20020;-69
2022/09/12 13:40:57;;;;;;;4.10;1.80;;;;;;;;;;6214638;23;20023;-69
2022/09/12 13:43:45;;;;;;;6.38;3.05;;;;;;;;;;6215137;23;20021;-69
2022/09/12 13:46:15;;;;;;;6.28;1.80;;;;;;;;;;6215029;23;20016;-69
2022/09/12 13:48:43;;;;;;;3.85;1.70;;;;;;;;;;6215082;23;20088;-67
2022/09/12 13:51:21;;;;;;;5.97;1.95;;;;;;;;;;6214882;23;20325;-68
2022/09/12 13:53:49;;;;;;;1.98;1.52;;;;;;;;;;6214831;23;20442;-68
2022/09/12 13:56:17;;;;;;;4.68;2.00;;;;;;;;;;6213821;23;20013;-67
2022/09/12 13:58:56;;;;;;;3.08;1.45;;;;;;;;;;6215144;23;20074;-67
2022/09/12 14:01:24;;;;;;;2.10;1.70;;;;;;;;;;6215147;23;20016;-67
2022/09/12 14:06:49;;;;;;;3.70;1.50;;;;;;;;;;6215078;23;20047;-67
2022/09/12 14:09:16;;;;;;;2.63;1.40;;;;;;;;;;6215133;23;20023;-67
2022/09/12 14:11:51;;;;;;;9.38;2.15;;;;;;;;;;6214950;23;20016;-67
2022/09/12 14:14:20;;;;;;;3.65;1.38;;;;;;;;;;6215467;23;20395;-67
2022/09/12 14:16:49;;;;;;;2.72;1.65;;;;;;;;;;6188420;23;20068;-67
2022/09/12 14:19:17;;;;;;;2.67;1.35;;;;;;;;;;6214953;23;20347;-67
2022/09/12 14:21:45;;;;;;;4.50;1.65;;;;;;;;;;6214987;23;20355;-67
2022/09/12 14:24:13;;;;;;;6.70;1.98;;;;;;;;;;6214977;23;20013;-67
2022/09/12 14:26:42;;;;;;;2.72;1.50;;;;;;;;;;6213424;23;20537;-68
2022/09/12 14:29:13;;;;;;;3.30;1.50;;;;;;;;;;6213136;23;20115;-68
2022/09/12 14:31:42;;;;;;;3.30;2.08;;;;;;;;;;6188067;23;20096;-69
2022/09/12 14:34:14;;;;;;;4.15;1.77;;;;;;;;;;6189853;23;20418;-69
2022/09/12 14:36:41;;;;;;;4.22;1.60;;;;;;;;;;6216407;23;20017;-69
2022/09/12 14:39:28;;;;;;;6.03;1.80;;;;;;;;;;6216409;23;20040;-67
2022/09/12 14:42:04;;;;;;;4.43;1.70;;;;;;;;;;6216530;23;20051;-68
2022/09/12 14:44:33;;;;;;;4.63;1.67;;;;;;;;;;6216563;23;20075;-67
2022/09/12 14:47:10;;;;;;;2.45;1.65;;;;;;;;;;6216291;23;20171;-68
2022/09/12 14:49:38;;;;;;;6.97;1.50;;;;;;;;;;6216570;23;20063;-68
2022/09/12 14:52:22;;;;;;;4.93;1.90;;;;;;;;;;6216094;23;20556;-68
2022/09/12 14:55:03;;;;;;;2.58;1.60;;;;;;;;;;6189666;23;20020;-68
2022/09/12 14:57:32;;;;;;;4.25;1.95;;;;;;;;;;6216359;23;20019;-68
2022/09/12 15:00:12;;;;;;;4.03;1.60;;;;;;;;;;6190228;23;20027;-68
2022/09/12 15:02:41;;;;;;;2.83;1.60;;;;;;;;;;6216263;23;20075;-68
2022/09/12 15:05:11;;;;;;;2.80;2.08;;;;;;;;;;6216319;23;20366;-68
2022/09/12 15:07:40;;;;;;;4.32;2.20;;;;;;;;;;6216162;23;20020;-68
2022/09/12 15:10:21;;;;;;;5.22;1.80;;;;;;;;;;6215998;23;20091;-67
2022/09/12 15:12:49;;;;;;;6.35;2.17;;;;;;;;;;6216490;23;20031;-68
2022/09/12 15:15:18;;;;;;;6.80;4.45;;;;;;;;;;6216058;23;20086;-68
2022/09/12 15:17:45;;;;;;;7.80;3.70;;;;;;;;;;6216167;23;20021;-68
2022/09/12 15:20:13;;;;;;;7.95;4.38;;;;;;;;;;6216052;23;20066;-68
2022/09/12 15:22:41;;;;;;;2.65;1.73;;;;;;;;;;6215879;23;20027;-68
2022/09/12 15:25:10;;;;;;;5.18;3.45;;;;;;;;;;6216029;23;20048;-67
2022/09/12 15:27:41;;;;;;;5.28;2.67;;;;;;;;;;6215900;23;20083;-68